createdAt,value
2019-01-30T00:00:00.554Z,100092.91
2019-01-30T00:02:27.602Z,100092.17
2019-01-30T00:04:54.686Z,100091.24
2019-01-30T00:07:21.747Z,100098.99
2019-01-30T00:09:50.626Z,100093.13
2019-01-30T00:12:18.064Z,100099.60
2019-01-30T00:14:47.030Z,100090.73
2019-01-30T00:17:14.103Z,100093.72
2019-01-30T00:19:41.176Z,100093.19
2019-01-30T00:22:08.553Z,100091.41
2019-01-30T00:24:35.627Z,100085.83
2019-01-30T00:27:03.188Z,100085.10
2019-01-30T00:29:30.589Z,100087.42
2019-01-30T00:31:58.381Z,100089.90
2019-01-30T00:34:28.332Z,100094.63
2019-01-30T00:36:55.399Z,100091.50
2019-01-30T00:39:22.483Z,100087.77
2019-01-30T00:41:50.747Z,100086.41
2019-01-30T00:44:17.961Z,100081.42
2019-01-30T00:46:45.719Z,100084.44
2019-01-30T00:49:13.174Z,100079.35
2019-01-30T00:51:40.259Z,100079.56
2019-01-30T00:54:07.678Z,100074.41
2019-01-30T00:56:35.446Z,100074.92
2019-01-30T00:59:03.852Z,100067.16
2019-01-30T01:01:31.589Z,100068.88
2019-01-30T01:03:59.350Z,100067.36
2019-01-30T01:06:27.553Z,100067.73
2019-01-30T01:08:54.978Z,100068.59
2019-01-30T01:11:22.337Z,100062.81
2019-01-30T01:13:49.997Z,100064.24
2019-01-30T01:16:17.454Z,100061.16
2019-01-30T01:18:44.807Z,100059.70
2019-01-30T01:21:13.287Z,100057.30
2019-01-30T01:23:40.946Z,100052.33
2019-01-30T01:26:08.019Z,100048.53
2019-01-30T01:28:35.128Z,100051.96
2019-01-30T01:31:02.816Z,100054.95
2019-01-30T01:33:30.256Z,100054.17
2019-01-30T01:35:57.614Z,100050.44
2019-01-30T01:38:25.072Z,100050.98
2019-01-30T01:40:52.733Z,100049.78
2019-01-30T01:43:20.120Z,100045.55
2019-01-30T01:45:48.569Z,100044.33
2019-01-30T01:48:15.831Z,100041.15
2019-01-30T01:50:42.884Z,100039.37
2019-01-30T01:53:11.749Z,100038.25
2019-01-30T01:55:38.823Z,100047.55
2019-01-30T01:58:05.966Z,100040.50
2019-01-30T02:00:35.599Z,100036.10
2019-01-30T02:03:02.299Z,100043.03
2019-01-30T02:05:29.367Z,100032.09
2019-01-30T02:07:57.111Z,100033.78
2019-01-30T02:10:24.680Z,100033.67
2019-01-30T02:12:52.137Z,100023.66
2019-01-30T02:15:21.055Z,100025.69
2019-01-30T02:17:48.123Z,100025.91
2019-01-30T02:20:17.561Z,100021.30
2019-01-30T02:22:44.641Z,100031.62
2019-01-30T02:25:13.313Z,100027.66
2019-01-30T02:27:40.406Z,100023.08
2019-01-30T02:30:12.412Z,100023.74
2019-01-30T02:32:39.856Z,100025.00
2019-01-30T02:35:07.004Z,100015.92
2019-01-30T02:37:34.590Z,100021.68
2019-01-30T02:40:02.869Z,100018.56
2019-01-30T02:42:30.031Z,100016.33
2019-01-30T02:44:58.932Z,100022.50
2019-01-30T02:47:25.997Z,100021.80
2019-01-30T02:49:53.466Z,100026.34
2019-01-30T02:52:21.560Z,100023.11
2019-01-30T02:54:48.936Z,100022.28
2019-01-30T02:57:16.290Z,100024.59
2019-01-30T02:59:43.746Z,100027.20
2019-01-30T03:02:20.582Z,100026.69
2019-01-30T03:04:47.999Z,100024.22
2019-01-30T03:07:15.433Z,100019.25
2019-01-30T03:09:42.787Z,100021.03
2019-01-30T03:12:11.269Z,100019.08
2019-01-30T03:14:38.622Z,100017.91
2019-01-30T03:17:06.820Z,100018.50
2019-01-30T03:19:34.561Z,100012.16
2019-01-30T03:22:02.691Z,100012.58
2019-01-30T03:24:30.701Z,100012.60
2019-01-30T03:26:58.158Z,100013.55
2019-01-30T03:29:26.947Z,100013.69
2019-01-30T03:31:54.722Z,100008.00
2019-01-30T03:34:21.777Z,100012.41
2019-01-30T03:36:49.212Z,100000.59
2019-01-30T03:39:16.570Z,100002.06
2019-01-30T03:41:44.237Z,100001.38
2019-01-30T03:44:11.995Z,99995.25
2019-01-30T03:46:39.081Z,99995.13
2019-01-30T03:49:06.133Z,99993.64
2019-01-30T03:51:33.546Z,99992.43
2019-01-30T03:54:00.603Z,99991.89
2019-01-30T03:56:27.703Z,99990.95
2019-01-30T03:58:55.542Z,99990.34
2019-01-30T04:01:26.687Z,99986.16
2019-01-30T04:03:52.980Z,99990.31
2019-01-30T04:06:20.337Z,99989.34
2019-01-30T04:08:48.000Z,99984.40
2019-01-30T04:11:16.033Z,99984.14
2019-01-30T04:13:43.833Z,99987.16
2019-01-30T04:16:11.203Z,99989.38
2019-01-30T04:18:38.594Z,99986.11
2019-01-30T04:21:06.304Z,99988.99
2019-01-30T04:23:33.385Z,99988.74
2019-01-30T04:26:01.544Z,99991.14
2019-01-30T04:28:29.211Z,99994.80
2019-01-30T04:30:57.668Z,99987.14
2019-01-30T04:33:26.047Z,99985.59
2019-01-30T04:35:53.582Z,99984.94
2019-01-30T04:38:21.268Z,99988.94
2019-01-30T04:40:48.666Z,99987.20
2019-01-30T04:43:18.021Z,99979.81
2019-01-30T04:45:45.376Z,99981.69
2019-01-30T04:48:12.730Z,99978.03
2019-01-30T04:50:59.957Z,99978.69
2019-01-30T04:53:44.496Z,99977.52
2019-01-30T04:56:30.325Z,99977.81
2019-01-30T04:59:13.501Z,99980.19
2019-01-30T05:01:55.403Z,99976.83
2019-01-30T05:04:38.412Z,99973.53
2019-01-30T05:07:14.760Z,99975.03
2019-01-30T05:10:02.411Z,99970.31
2019-01-30T05:12:53.173Z,99969.31
2019-01-30T05:15:30.455Z,99971.05
2019-01-30T05:18:15.987Z,99970.59
2019-01-30T05:21:06.841Z,99969.44
2019-01-30T05:23:50.034Z,99973.23
2019-01-30T05:26:36.155Z,99973.38
2019-01-30T05:29:14.843Z,99973.15
2019-01-30T05:32:00.924Z,99976.15
2019-01-30T05:34:25.686Z,99968.59
2019-01-30T05:37:13.052Z,99966.73
2019-01-30T05:39:53.336Z,99970.34
2019-01-30T05:42:21.884Z,99965.77
2019-01-30T05:44:50.389Z,99963.59
2019-01-30T05:47:18.922Z,99962.45
2019-01-30T05:49:46.628Z,99962.76
2019-01-30T05:52:13.720Z,99961.92
2019-01-30T05:54:40.772Z,99953.47
2019-01-30T05:57:09.268Z,99955.92
2019-01-30T05:59:37.126Z,99954.27
2019-01-30T06:02:11.837Z,99955.58
2019-01-30T06:04:34.683Z,99956.13
2019-01-30T06:07:02.816Z,99956.52
2019-01-30T06:09:29.919Z,99949.61
2019-01-30T06:11:57.111Z,99955.50
2019-01-30T06:14:24.210Z,99959.79
2019-01-30T06:16:51.622Z,99961.34
2019-01-30T06:19:18.706Z,99967.50
2019-01-30T06:21:46.075Z,99963.13
2019-01-30T06:24:13.893Z,99964.75
2019-01-30T06:26:41.347Z,99962.76
2019-01-30T06:29:09.110Z,99965.12
2019-01-30T06:31:37.387Z,99963.59
2019-01-30T06:34:05.159Z,99965.79
2019-01-30T06:36:33.631Z,99965.44
2019-01-30T06:39:01.327Z,99962.45
2019-01-30T06:41:30.492Z,99964.94
2019-01-30T06:43:57.990Z,99969.44
2019-01-30T06:46:25.304Z,99966.67
2019-01-30T06:48:52.761Z,99968.37
2019-01-30T06:51:20.219Z,99967.59
2019-01-30T06:53:47.329Z,99965.66
2019-01-30T06:56:14.719Z,99971.77
2019-01-30T06:58:42.488Z,99976.26
2019-01-30T07:01:10.968Z,99972.44
2019-01-30T07:03:38.356Z,99978.22
2019-01-30T07:06:07.726Z,99975.09
2019-01-30T07:08:34.454Z,99973.81
2019-01-30T07:11:10.384Z,99972.84
2019-01-30T07:13:30.817Z,99971.01
2019-01-30T07:15:58.272Z,99985.50
2019-01-30T07:18:25.622Z,99982.56
2019-01-30T07:20:54.205Z,99987.61
2019-01-30T07:23:21.970Z,99988.81
2019-01-30T07:25:49.524Z,99983.66
2019-01-30T07:28:18.010Z,99978.27
2019-01-30T07:30:45.119Z,99981.67
2019-01-30T07:33:12.361Z,99987.24
2019-01-30T07:35:39.471Z,99988.64
2019-01-30T07:38:07.224Z,99985.97
2019-01-30T07:40:34.575Z,99982.04
2019-01-30T07:43:02.132Z,99991.26
2019-01-30T07:45:30.819Z,99986.03
2019-01-30T07:47:58.022Z,99989.12
2019-01-30T07:50:25.731Z,99990.67
2019-01-30T07:52:53.395Z,99992.70
2019-01-30T07:55:20.442Z,99991.06
2019-01-30T07:57:49.944Z,99994.72
2019-01-30T08:00:22.832Z,99998.26
2019-01-30T08:02:53.270Z,99995.55
2019-01-30T08:05:19.289Z,99996.51
2019-01-30T08:07:46.383Z,99994.54
2019-01-30T08:10:13.540Z,99999.77
2019-01-30T08:12:40.645Z,99995.64
2019-01-30T08:15:10.825Z,100004.22
2019-01-30T08:17:37.918Z,100002.89
2019-01-30T08:20:09.442Z,100002.22
2019-01-30T08:22:36.541Z,100006.63
2019-01-30T08:25:05.718Z,99994.22
2019-01-30T08:27:34.633Z,99997.86
2019-01-30T08:30:05.721Z,100000.81
2019-01-30T08:32:33.734Z,100010.19
2019-01-30T08:35:01.193Z,100006.47
2019-01-30T08:37:29.433Z,100000.45
2019-01-30T08:39:56.513Z,100000.84
2019-01-30T08:42:23.926Z,100003.77
2019-01-30T08:44:51.351Z,99994.78
2019-01-30T08:47:18.429Z,99996.59
2019-01-30T08:49:45.483Z,99998.55
2019-01-30T08:52:12.530Z,99993.30
2019-01-30T08:54:39.646Z,99994.05
2019-01-30T08:57:06.795Z,99986.36
2019-01-30T08:59:35.251Z,99989.51
2019-01-30T09:02:02.662Z,99989.25
2019-01-30T09:04:30.080Z,99991.71
2019-01-30T09:06:59.596Z,99995.05
2019-01-30T09:09:26.978Z,99995.23
2019-01-30T09:11:54.849Z,99989.64
2019-01-30T09:14:22.301Z,99987.85
2019-01-30T09:16:49.432Z,99991.05
2019-01-30T09:19:17.215Z,99984.08
2019-01-30T09:21:46.101Z,99988.80
2019-01-30T09:24:16.234Z,99991.20
2019-01-30T09:26:43.788Z,99996.23
2019-01-30T09:29:12.906Z,100000.31
2019-01-30T09:31:40.336Z,99997.16
2019-01-30T09:34:07.409Z,99997.03
2019-01-30T09:36:36.886Z,99992.35
2019-01-30T09:39:07.570Z,99988.09
2019-01-30T09:41:34.860Z,99992.70
2019-01-30T09:44:02.248Z,99986.34
2019-01-30T09:46:29.336Z,99984.55
2019-01-30T09:48:57.143Z,99988.23
2019-01-30T09:51:24.598Z,99983.94
2019-01-30T09:53:52.135Z,99983.58
2019-01-30T09:56:19.518Z,99984.20
2019-01-30T09:58:46.853Z,99983.58
2019-01-30T10:01:14.326Z,99985.86
2019-01-30T10:03:41.773Z,99989.06
2019-01-30T10:06:09.504Z,99982.98
2019-01-30T10:08:36.602Z,99978.89
2019-01-30T10:11:03.831Z,99984.95
2019-01-30T10:13:30.917Z,99980.58
2019-01-30T10:15:59.190Z,99978.64
2019-01-30T10:18:28.240Z,99974.00
2019-01-30T10:20:55.835Z,99980.33
2019-01-30T10:23:23.960Z,99976.41
2019-01-30T10:25:51.033Z,99976.28
2019-01-30T10:28:18.239Z,99975.11
2019-01-30T10:30:45.796Z,99973.25
2019-01-30T10:33:12.896Z,99970.65
2019-01-30T10:35:40.114Z,99966.70
2019-01-30T10:38:07.335Z,99970.65
2019-01-30T10:40:34.378Z,99970.20
2019-01-30T10:43:01.484Z,99963.31
2019-01-30T10:45:28.559Z,99966.32
2019-01-30T10:47:55.663Z,99961.14
2019-01-30T10:50:25.097Z,99947.38
2019-01-30T10:52:52.381Z,99946.95
2019-01-30T10:55:21.739Z,99948.02
2019-01-30T10:57:51.207Z,99949.48
2019-01-30T11:00:23.715Z,99946.31
2019-01-30T11:02:50.828Z,99942.55
2019-01-30T11:05:19.686Z,99943.97
2019-01-30T11:07:47.025Z,99939.52
2019-01-30T11:10:15.961Z,99939.05
2019-01-30T11:12:43.030Z,99932.87
2019-01-30T11:15:12.662Z,99940.92
2019-01-30T11:17:39.786Z,99939.29
2019-01-30T11:20:08.386Z,99934.70
2019-01-30T11:22:35.759Z,99935.52
2019-01-30T11:25:05.636Z,99932.80
2019-01-30T11:27:32.783Z,99930.08
2019-01-30T11:30:01.203Z,99930.45
2019-01-30T11:32:29.800Z,99923.49
2019-01-30T11:34:57.222Z,99924.54
2019-01-30T11:37:26.852Z,99910.78
2019-01-30T11:39:54.443Z,99909.24
2019-01-30T11:42:22.379Z,99913.80
2019-01-30T11:44:49.487Z,99909.26
2019-01-30T11:47:16.883Z,99907.70
2019-01-30T11:49:46.002Z,99907.92
2019-01-30T11:52:13.053Z,99907.35
2019-01-30T11:54:40.542Z,99898.64
2019-01-30T11:57:07.942Z,99900.25
2019-01-30T11:59:36.143Z,99893.28
2019-01-30T12:02:03.229Z,99896.72
2019-01-30T12:04:30.752Z,99888.50
2019-01-30T12:06:58.488Z,99884.66
2019-01-30T12:09:30.647Z,99880.38
2019-01-30T12:11:58.874Z,99877.13
2019-01-30T12:14:28.323Z,99874.72
2019-01-30T12:16:55.772Z,99865.38
2019-01-30T12:19:24.366Z,99870.30
2019-01-30T12:21:52.032Z,99870.81
2019-01-30T12:24:19.383Z,99866.58
2019-01-30T12:26:47.067Z,99859.28
2019-01-30T12:29:14.131Z,99865.25
2019-01-30T12:31:42.285Z,99853.97
2019-01-30T12:34:09.723Z,99856.33
2019-01-30T12:36:38.112Z,99851.14
2019-01-30T12:39:08.831Z,99843.47
2019-01-30T12:41:36.700Z,99846.94
2019-01-30T12:44:05.892Z,99843.64
2019-01-30T12:46:32.959Z,99838.45
2019-01-30T12:49:00.061Z,99837.52
2019-01-30T12:51:27.156Z,99833.73
2019-01-30T12:53:54.223Z,99838.98
2019-01-30T12:56:22.410Z,99833.40
2019-01-30T12:58:50.521Z,99842.77
2019-01-30T13:01:17.598Z,99839.36
2019-01-30T13:03:45.188Z,99835.00
2019-01-30T13:06:14.442Z,99826.37
2019-01-30T13:08:41.810Z,99828.05
2019-01-30T13:11:10.274Z,99828.92
2019-01-30T13:13:37.347Z,99819.37
2019-01-30T13:16:05.906Z,99826.23
2019-01-30T13:18:33.370Z,99814.10
2019-01-30T13:21:00.456Z,99823.89
2019-01-30T13:23:28.890Z,99825.66
2019-01-30T13:25:55.974Z,99819.66
2019-01-30T13:28:23.040Z,99815.87
2019-01-30T13:30:51.471Z,99809.14
2019-01-30T13:33:19.232Z,99816.30
2019-01-30T13:35:46.369Z,99813.37
2019-01-30T13:38:13.848Z,99810.75
2019-01-30T13:40:41.539Z,99811.74
2019-01-30T13:43:09.059Z,99801.69
2019-01-30T13:45:36.167Z,99802.41
2019-01-30T13:48:06.012Z,99811.53
2019-01-30T13:50:33.410Z,99803.44
2019-01-30T13:53:00.469Z,99800.38
2019-01-30T13:55:28.114Z,99797.16
2019-01-30T13:57:55.236Z,99795.69
2019-01-30T14:00:27.022Z,99811.80
2019-01-30T14:02:54.757Z,99805.81
2019-01-30T14:05:21.915Z,99807.87
2019-01-30T14:07:49.911Z,99806.56
2019-01-30T14:10:17.753Z,99806.10
2019-01-30T14:12:45.978Z,99802.72
2019-01-30T14:15:15.101Z,99794.19
2019-01-30T14:17:43.612Z,99802.12
2019-01-30T14:20:12.037Z,99802.24
2019-01-30T14:22:39.087Z,99789.99
2019-01-30T14:25:07.813Z,99792.34
2019-01-30T14:27:36.080Z,99790.06
2019-01-30T14:30:05.907Z,99797.59
2019-01-30T14:32:34.784Z,99798.62
2019-01-30T14:35:10.572Z,99788.62
2019-01-30T14:37:30.867Z,99791.12
2019-01-30T14:39:58.251Z,99786.02
2019-01-30T14:42:26.967Z,99787.05
2019-01-30T14:44:54.340Z,99791.30
2019-01-30T14:47:24.232Z,99795.05
2019-01-30T14:49:52.096Z,99787.33
2019-01-30T14:52:20.915Z,99785.86
2019-01-30T14:54:49.127Z,99796.92
2019-01-30T14:57:16.209Z,99797.22
2019-01-30T14:59:43.330Z,99792.16
2019-01-30T15:02:10.504Z,99792.31
2019-01-30T15:04:38.892Z,99788.37
2019-01-30T15:07:06.394Z,99793.67
2019-01-30T15:09:34.807Z,99795.52
2019-01-30T15:12:01.884Z,99789.73
2019-01-30T15:14:28.964Z,99785.91
2019-01-30T15:16:56.073Z,99784.74
2019-01-30T15:19:26.148Z,99783.56
2019-01-30T15:21:53.324Z,99787.83
2019-01-30T15:24:20.418Z,99780.15
2019-01-30T15:26:47.748Z,99778.47
2019-01-30T15:29:16.654Z,99779.81
2019-01-30T15:31:44.119Z,99782.38
2019-01-30T15:34:11.240Z,99786.23
2019-01-30T15:36:38.368Z,99772.60
2019-01-30T15:39:08.363Z,99782.77
2019-01-30T15:41:35.845Z,99779.07
2019-01-30T15:44:02.931Z,99775.94
2019-01-30T15:46:30.025Z,99776.28
2019-01-30T15:48:57.419Z,99775.88
2019-01-30T15:51:24.520Z,99765.78
2019-01-30T15:53:51.601Z,99767.13
2019-01-30T15:56:18.797Z,99771.84
2019-01-30T15:58:48.267Z,99770.14
2019-01-30T16:01:23.298Z,99766.81
2019-01-30T16:03:50.753Z,99766.09
2019-01-30T16:06:18.111Z,99764.86
2019-01-30T16:08:45.883Z,99762.33
2019-01-30T16:11:13.231Z,99762.92
2019-01-30T16:13:41.620Z,99766.12
2019-01-30T16:16:10.526Z,99765.36
2019-01-30T16:18:37.855Z,99762.27
2019-01-30T16:21:04.979Z,99761.12
2019-01-30T16:23:33.382Z,99763.37
2019-01-30T16:26:01.560Z,99759.41
2019-01-30T16:28:32.664Z,99756.49
2019-01-30T16:30:59.756Z,99755.84
2019-01-30T16:33:27.216Z,99755.61
2019-01-30T16:35:56.623Z,99760.27
2019-01-30T16:38:23.749Z,99757.64
2019-01-30T16:40:50.936Z,99758.25
2019-01-30T16:43:20.416Z,99754.84
2019-01-30T16:45:47.875Z,99757.39
2019-01-30T16:48:15.142Z,99759.22
2019-01-30T16:50:42.347Z,99759.66
2019-01-30T16:53:09.831Z,99757.22
2019-01-30T16:55:37.930Z,99763.75
2019-01-30T16:58:07.401Z,99760.87
2019-01-30T17:00:35.632Z,99755.19
2019-01-30T17:03:02.812Z,99764.61
2019-01-30T17:05:30.243Z,99755.78
2019-01-30T17:07:57.894Z,99758.97
2019-01-30T17:10:24.985Z,99761.73
2019-01-30T17:12:52.414Z,99766.73
2019-01-30T17:15:21.755Z,99763.13
2019-01-30T17:17:50.624Z,99770.09
2019-01-30T17:20:22.838Z,99767.38
2019-01-30T17:22:49.890Z,99764.83
2019-01-30T17:25:18.988Z,99767.29
2019-01-30T17:27:56.626Z,99766.27
2019-01-30T17:30:47.753Z,99774.47
2019-01-30T17:33:17.437Z,99770.35
2019-01-30T17:35:52.509Z,99771.25
2019-01-30T17:38:32.297Z,99764.75
2019-01-30T17:41:01.585Z,99770.78
2019-01-30T17:43:32.419Z,99772.71
2019-01-30T17:46:10.942Z,99768.79
2019-01-30T17:48:50.495Z,99767.61
2019-01-30T17:51:30.267Z,99771.18
2019-01-30T17:54:00.753Z,99766.47
2019-01-30T17:56:39.781Z,99765.82
2019-01-30T17:59:08.325Z,99761.54
2019-01-30T18:01:35.989Z,99776.53
2019-01-30T18:04:04.671Z,99768.48
2019-01-30T18:06:32.571Z,99772.61
2019-01-30T18:08:59.639Z,99779.26
2019-01-30T18:11:28.134Z,99772.66
2019-01-30T18:13:55.413Z,99774.45
2019-01-30T18:16:26.909Z,99778.97
2019-01-30T18:18:53.985Z,99773.84
2019-01-30T18:21:25.265Z,99783.97
2019-01-30T18:23:52.431Z,99771.53
2019-01-30T18:26:21.541Z,99770.53
2019-01-30T18:28:50.667Z,99768.77
2019-01-30T18:31:17.737Z,99776.67
2019-01-30T18:33:44.821Z,99776.67
2019-01-30T18:36:13.022Z,99768.52
2019-01-30T18:38:40.471Z,99778.11
2019-01-30T18:41:07.547Z,99769.84
2019-01-30T18:43:35.141Z,99764.86
2019-01-30T18:46:02.494Z,99771.00
2019-01-30T18:48:29.794Z,99770.92
2019-01-30T18:50:57.131Z,99771.39
2019-01-30T18:53:24.867Z,99764.93
2019-01-30T18:55:52.247Z,99769.91
2019-01-30T18:58:21.419Z,99768.55
2019-01-30T19:00:48.505Z,99760.98
2019-01-30T19:03:17.237Z,99753.75
2019-01-30T19:05:44.310Z,99768.27
2019-01-30T19:08:11.754Z,99761.91
2019-01-30T19:10:38.948Z,99767.23
2019-01-30T19:13:06.388Z,99766.27
2019-01-30T19:15:33.824Z,99767.66
2019-01-30T19:18:00.939Z,99770.39
2019-01-30T19:20:30.368Z,99769.23
2019-01-30T19:22:57.455Z,99772.83
2019-01-30T19:25:24.878Z,99763.13
2019-01-30T19:27:52.336Z,99767.58
2019-01-30T19:30:24.494Z,99772.11
2019-01-30T19:32:52.470Z,99769.70
2019-01-30T19:35:19.856Z,99768.47
2019-01-30T19:37:47.085Z,99764.49
2019-01-30T19:40:15.605Z,99764.98
2019-01-30T19:42:42.728Z,99768.52
2019-01-30T19:45:11.691Z,99773.75
2019-01-30T19:47:38.895Z,99767.78
2019-01-30T19:50:09.985Z,99765.28
2019-01-30T19:52:37.348Z,99767.00
2019-01-30T19:55:04.973Z,99773.22
2019-01-30T19:57:32.054Z,99762.66
2019-01-30T19:59:59.756Z,99758.81
2019-01-30T20:02:26.965Z,99763.53
2019-01-30T20:04:55.076Z,99764.56
2019-01-30T20:07:22.495Z,99755.16
2019-01-30T20:09:50.264Z,99756.39
2019-01-30T20:12:17.343Z,99756.75
2019-01-30T20:14:45.527Z,99753.78
2019-01-30T20:17:12.616Z,99758.19
2019-01-30T20:19:40.292Z,99753.75
2019-01-30T20:22:10.001Z,99756.96
2019-01-30T20:24:38.401Z,99757.85
2019-01-30T20:27:05.710Z,99760.08
2019-01-30T20:29:35.442Z,99758.33
2019-01-30T20:32:02.962Z,99753.73
2019-01-30T20:34:30.159Z,99753.30
2019-01-30T20:36:57.355Z,99758.00
2019-01-30T20:39:24.714Z,99754.23
2019-01-30T20:41:53.596Z,99748.31
2019-01-30T20:44:20.859Z,99758.11
2019-01-30T20:46:47.927Z,99747.66
2019-01-30T20:49:15.074Z,99747.19
2019-01-30T20:51:43.193Z,99736.26
2019-01-30T20:54:10.335Z,99731.69
2019-01-30T20:56:37.379Z,99745.84
2019-01-30T20:59:04.536Z,99744.81
2019-01-30T21:01:31.615Z,99743.80
2019-01-30T21:03:58.655Z,99740.45
2019-01-30T21:06:25.756Z,99747.81
2019-01-30T21:08:54.123Z,99732.20
2019-01-30T21:11:21.163Z,99733.86
2019-01-30T21:13:48.324Z,99733.63
2019-01-30T21:16:15.373Z,99730.71
2019-01-30T21:18:44.212Z,99735.72
2019-01-30T21:21:11.463Z,99738.84
2019-01-30T21:23:38.498Z,99744.87
2019-01-30T21:26:05.830Z,99745.52
2019-01-30T21:28:32.896Z,99749.39
2019-01-30T21:30:59.963Z,99737.81
2019-01-30T21:33:27.988Z,99744.30
2019-01-30T21:35:55.546Z,99742.14
2019-01-30T21:38:24.026Z,99735.19
2019-01-30T21:40:51.083Z,99732.80
2019-01-30T21:43:18.406Z,99731.44
2019-01-30T21:45:47.005Z,99734.09
2019-01-30T21:48:14.054Z,99729.82
2019-01-30T21:50:41.410Z,99731.20
2019-01-30T21:53:08.458Z,99737.27
2019-01-30T21:55:36.543Z,99731.97
2019-01-30T21:58:05.113Z,99726.76
2019-01-30T22:00:32.570Z,99726.89
2019-01-30T22:03:00.438Z,99730.30
2019-01-30T22:05:28.609Z,99732.66
2019-01-30T22:08:00.887Z,99723.61
2019-01-30T22:10:26.618Z,99724.17
2019-01-30T22:12:54.255Z,99721.92
2019-01-30T22:15:22.226Z,99723.45
2019-01-30T22:17:49.584Z,99723.41
2019-01-30T22:20:21.766Z,99724.69
2019-01-30T22:22:50.141Z,99715.11
2019-01-30T22:25:20.648Z,99705.72
2019-01-30T22:27:47.620Z,99710.79
2019-01-30T22:30:26.521Z,99703.45
2019-01-30T22:32:54.495Z,99703.05
2019-01-30T22:35:22.155Z,99702.77
2019-01-30T22:37:49.210Z,99695.62
2019-01-30T22:40:16.287Z,99691.92
2019-01-30T22:42:43.341Z,99692.41
2019-01-30T22:45:12.443Z,99694.21
2019-01-30T22:47:40.259Z,99695.05
2019-01-30T22:50:08.784Z,99698.39
2019-01-30T22:52:38.045Z,99703.63
2019-01-30T22:55:06.711Z,99697.50
2019-01-30T22:57:34.387Z,99699.06
2019-01-30T23:00:01.503Z,99694.06
2019-01-30T23:02:31.554Z,99700.70
2019-01-30T23:05:17.894Z,99701.04
2019-01-30T23:08:10.018Z,99695.38
2019-01-30T23:11:14.704Z,99700.00
2019-01-30T23:14:08.987Z,99691.20
2019-01-30T23:17:19.575Z,99691.63
2019-01-30T23:20:22.759Z,99687.81
2019-01-30T23:23:18.125Z,99690.58
2019-01-30T23:26:11.539Z,99686.11
2019-01-30T23:29:31.618Z,99682.86
2019-01-30T23:32:37.078Z,99681.63
2019-01-30T23:36:00.017Z,99686.31
2019-01-30T23:39:24.022Z,99685.93
2019-01-30T23:42:23.590Z,99684.05
2019-01-30T23:44:58.392Z,99680.05
2019-01-30T23:47:51.417Z,99685.75
2019-01-30T23:50:46.661Z,99681.09
2019-01-30T23:54:13.911Z,99677.36
2019-01-30T23:57:40.814Z,99674.70
